Aérodrome :
LOGIN :

S'inscrire | Disclaimer

   EN    FR    IT 

 










Légende :    VFR   VFR Marginal   IFR   IFR Intensif   IFR Très Intensif
Visi : 
Plafond : 
>= 8 km
>= 3000ft
5 à 8 km
1000 à 3000 ft
1500m à 5 km
500 à 1000 ft
800 à 1500m
200 à 500 ft
< 800m
< 200 ft
Symboles :   Orages  Brouillard  Fortes neiges  Fortes précipitations  Vent > 20 kt
SIGMETs :   Divers  Orages  Givrage  Turbulence  Onde Orograph.  Cendres Volcan.







- Altitude de l'aérodrome : 270 ft
- Code IATA : OXF
- Voir les cartes d'approche


EGTK - Oxford (Kidlington)

DERNIER METAR :
  • 281020Z 03008KT 360V060 9000 FEW006 BKN008 OVC010 15/14 Q0998

METARs EXPIRÉS :
  • 280950Z 03008KT 7000 DZ SCT006 BKN007 OVC009 15/14 Q0998
  • 280920Z 03008KT 9999 SCT007 BKN011 OVC018 15/14 Q0998
  • 280850Z 03007KT 9999 BKN007 OVC012 15/14 Q0998
  • 280820Z 02008KT 9999 SCT007 OVC011 15/14 Q0998
  • 280750Z 03005KT 9999 SCT007 OVC008 15/14 Q0998

TAF TAF EGTK
Valide du 28 à 09h jusqu'au 28 à 18h UTC


280801Z 2809/2818 05007KT 9999 BKN005
TEMPO 2809/2813 4000 RA
PROB40
TEMPO 2809/2810 BKN003
BECMG 2810/2813 35010KT FEW012 BKN018
PROB30
TEMPO 2813/2815 6000 -RA BKN012
Pas de NOTAMs connus pour ce terrain.
1 SIGMET publié pour la FIR London (EGTT) :
 
Orages noyés dans la masse
EGTT SIGMET 02 VALID 280805/281100 EGRR
EGTT LONDON FIR EMBD TS FCST WI N5234 E00252 - N5306 E00020 - N5408 E00111 - N5409 E00414 - N5234 E00252 TOP FL370 MOV NNW 25KT NC=



MET'MAP, la Météo Aéronautique d'un coup d'oeil ! - Copyright ORBIFLY Décembre 2007 - Disclaimer

ORBIFLY MET'MAP TEAM :

Programmation & Développement : Alexandra Zaïnal
Conception & Développement : Baudouin d'Aumeries
Co-Programmation & Développement : Marc-Olivier Méhu
Soutien technique & logistique : Manuel Goepfert

Contact : metmap@orbifly.com




SOURCES & CREDITS :

   NOAA